Time;durP1;ratioP1;P1;durP2;ratioP2;P2;SDS_P1;SDS_P2;PMS_P1;PMS_P2;Temp;Humidity;BMP_temperature;BMP_pressure;BME280_temperature;BME280_humidity;BME280_pressure;Samples;Min_cycle;Max_cycle;Signal;HPM_P1;HPM_P2
2023/04/27 00:00:28;;;;;;;;;;;5.00;99.90;;;;;;5102978;28;19926;-69
2023/04/27 00:02:54;;;;;;;;;;;5.00;99.90;;;;;;5103048;28;20112;-70
2023/04/27 00:05:21;;;;;;;;;;;4.90;99.90;;;;;;5102693;28;19990;-71
2023/04/27 00:07:48;;;;;;;;;;;4.80;99.90;;;;;;5102740;28;19927;-70
2023/04/27 00:10:14;;;;;;;;;;;4.80;99.90;;;;;;5103135;28;19971;-69
2023/04/27 00:12:41;;;;;;;;;;;4.70;99.90;;;;;;5103115;28;19920;-69
2023/04/27 00:15:10;;;;;;;;;;;4.70;99.90;;;;;;5105066;28;19924;-69
2023/04/27 00:17:37;;;;;;;;;;;4.60;99.90;;;;;;5105199;28;19920;-72
2023/04/27 00:20:07;;;;;;;;;;;4.60;99.90;;;;;;5106519;28;19957;-69
2023/04/27 00:22:35;;;;;;;;;;;4.60;99.90;;;;;;5106732;28;19923;-70
2023/04/27 00:25:02;;;;;;;;;;;4.60;99.90;;;;;;5105517;28;19983;-69
2023/04/27 00:27:28;;;;;;;;;;;4.60;99.90;;;;;;5105944;28;19920;-70
2023/04/27 00:29:55;;;;;;;;;;;4.60;99.90;;;;;;5103443;28;19995;-70
2023/04/27 00:32:23;;;;;;;;;;;4.60;99.90;;;;;;5106477;28;19971;-71
2023/04/27 00:34:49;;;;;;;;;;;4.60;99.90;;;;;;5104032;28;19926;-70
2023/04/27 00:37:17;;;;;;;;;;;4.60;99.90;;;;;;5105878;28;19955;-69
2023/04/27 00:39:44;;;;;;;;;;;4.60;99.90;;;;;;5104806;28;19966;-69
2023/04/27 00:42:14;;;;;;;;;;;4.60;99.90;;;;;;5105988;28;19987;-70
2023/04/27 00:44:40;;;;;;;;;;;4.60;99.90;;;;;;5106187;28;19967;-70
2023/04/27 00:47:07;;;;;;;;;;;4.50;99.90;;;;;;5105281;28;19983;-70
2023/04/27 00:49:35;;;;;;;;;;;4.50;99.90;;;;;;5105730;28;19988;-70
2023/04/27 00:52:02;;;;;;;;;;;4.40;99.90;;;;;;5106016;28;19926;-69
2023/04/27 00:54:29;;;;;;;;;;;4.50;99.90;;;;;;5104522;28;19942;-69
2023/04/27 00:56:56;;;;;;;;;;;4.40;99.90;;;;;;5104457;28;19920;-71
2023/04/27 00:59:24;;;;;;;;;;;4.40;99.90;;;;;;5105448;28;20253;-69
2023/04/27 01:01:50;;;;;;;;;;;4.40;99.90;;;;;;5114717;28;19920;-69
2023/04/27 01:04:17;;;;;;;;;;;4.30;99.90;;;;;;5126000;28;20161;-70
2023/04/27 01:06:45;;;;;;;;;;;4.30;99.90;;;;;;5125110;28;19961;-71
2023/04/27 01:09:12;;;;;;;;;;;4.20;99.90;;;;;;5126101;28;19955;-71
2023/04/27 01:11:39;;;;;;;;;;;4.20;99.90;;;;;;5126043;28;19957;-70
2023/04/27 01:14:06;;;;;;;;;;;4.20;99.90;;;;;;5125812;28;20231;-70
2023/04/27 01:16:32;;;;;;;;;;;4.20;99.90;;;;;;5124909;28;19919;-69
2023/04/27 01:18:59;;;;;;;;;;;4.10;99.90;;;;;;5125660;28;19982;-69
2023/04/27 01:21:26;;;;;;;;;;;3.90;99.90;;;;;;5125939;28;19988;-69
2023/04/27 01:23:54;;;;;;;;;;;3.90;99.90;;;;;;5123294;28;19962;-69
2023/04/27 01:26:21;;;;;;;;;;;3.80;99.90;;;;;;5125111;28;19920;-71
2023/04/27 01:28:47;;;;;;;;;;;3.70;99.90;;;;;;5125785;28;19919;-69
2023/04/27 01:31:14;;;;;;;;;;;3.60;99.90;;;;;;5125654;28;19926;-69
2023/04/27 01:33:41;;;;;;;;;;;3.60;99.90;;;;;;5125728;28;20123;-68
2023/04/27 01:36:08;;;;;;;;;;;3.50;99.90;;;;;;5124949;28;19982;-70
2023/04/27 01:38:36;;;;;;;;;;;3.60;99.90;;;;;;5125413;28;19919;-69
2023/04/27 01:41:05;;;;;;;;;;;3.50;99.90;;;;;;5125401;27;19920;-70
2023/04/27 01:43:32;;;;;;;;;;;3.50;99.90;;;;;;5123469;27;19959;-69
2023/04/27 01:46:04;;;;;;;;;;;3.50;99.90;;;;;;5124012;28;19919;-70
2023/04/27 01:48:31;;;;;;;;;;;3.50;99.90;;;;;;5125019;27;20268;-70
2023/04/27 01:50:58;;;;;;;;;;;3.50;99.90;;;;;;5125425;28;19994;-70
2023/04/27 01:53:24;;;;;;;;;;;3.50;99.90;;;;;;5125382;28;20114;-69
2023/04/27 01:55:51;;;;;;;;;;;3.40;99.90;;;;;;5124870;28;20211;-70
2023/04/27 01:58:19;;;;;;;;;;;3.40;99.90;;;;;;5124541;27;19920;-74
2023/04/27 02:00:46;;;;;;;;;;;3.40;99.90;;;;;;5124536;28;19982;-69
2023/04/27 02:03:12;;;;;;;;;;;3.40;99.90;;;;;;5104417;28;19983;-70
2023/04/27 02:05:39;;;;;;;;;;;3.40;99.90;;;;;;5104079;28;19984;-70
2023/04/27 02:08:06;;;;;;;;;;;3.30;99.90;;;;;;5104009;28;19920;-70
2023/04/27 02:10:32;;;;;;;;;;;3.30;99.90;;;;;;5104108;28;19920;-70
2023/04/27 02:12:59;;;;;;;;;;;3.30;99.90;;;;;;5104413;28;19920;-71
2023/04/27 02:15:27;;;;;;;;;;;3.30;99.90;;;;;;5104303;28;20097;-69
2023/04/27 02:17:53;;;;;;;;;;;3.20;99.90;;;;;;5103910;28;19920;-69
2023/04/27 02:20:20;;;;;;;;;;;3.20;99.90;;;;;;5104158;28;19959;-70
2023/04/27 02:22:47;;;;;;;;;;;3.20;99.90;;;;;;5104138;28;20153;-69
2023/04/27 02:25:15;;;;;;;;;;;3.10;99.90;;;;;;5101795;28;19977;-70
2023/04/27 02:27:42;;;;;;;;;;;3.10;99.90;;;;;;5103222;28;20254;-71
2023/04/27 02:30:10;;;;;;;;;;;3.00;99.90;;;;;;5103797;28;19955;-70
2023/04/27 02:32:38;;;;;;;;;;;3.00;99.90;;;;;;5104077;28;20120;-72
2023/04/27 02:35:05;;;;;;;;;;;3.00;99.90;;;;;;5103766;28;19978;-69
2023/04/27 02:37:32;;;;;;;;;;;3.00;99.90;;;;;;5103548;28;19979;-69
2023/04/27 02:39:58;;;;;;;;;;;2.90;99.90;;;;;;5103741;28;19983;-69
2023/04/27 02:42:25;;;;;;;;;;;3.00;99.90;;;;;;5103885;28;19974;-69
2023/04/27 02:44:52;;;;;;;;;;;3.00;99.90;;;;;;5103897;28;20111;-70
2023/04/27 02:47:18;;;;;;;;;;;2.90;99.90;;;;;;5103501;28;19920;-70
2023/04/27 02:49:47;;;;;;;;;;;2.90;99.90;;;;;;5103851;28;19987;-71
2023/04/27 02:52:13;;;;;;;;;;;2.90;99.90;;;;;;5103639;28;19963;-69
2023/04/27 02:54:40;;;;;;;;;;;2.90;99.90;;;;;;5103390;28;19927;-69
2023/04/27 02:57:06;;;;;;;;;;;2.90;99.90;;;;;;5103276;28;19996;-69
2023/04/27 02:59:33;;;;;;;;;;;2.80;99.90;;;;;;5103741;28;19955;-71
2023/04/27 03:02:00;;;;;;;;;;;2.80;99.90;;;;;;5114370;28;19983;-71
2023/04/27 03:04:27;;;;;;;;;;;2.70;99.90;;;;;;5124045;28;19919;-70
2023/04/27 03:06:55;;;;;;;;;;;2.70;99.90;;;;;;5122764;28;19983;-71
2023/04/27 03:09:21;;;;;;;;;;;2.60;99.90;;;;;;5123698;28;19934;-69
2023/04/27 03:11:48;;;;;;;;;;;2.70;99.90;;;;;;5124202;28;19963;-71
2023/04/27 03:14:15;;;;;;;;;;;2.80;99.90;;;;;;5124126;28;20179;-69
2023/04/27 03:16:41;;;;;;;;;;;2.70;99.90;;;;;;5123204;28;19955;-69
2023/04/27 03:19:08;;;;;;;;;;;2.60;99.90;;;;;;5123594;28;20004;-70
2023/04/27 03:21:34;;;;;;;;;;;2.60;99.90;;;;;;5123921;28;19951;-69
2023/04/27 03:24:02;;;;;;;;;;;2.60;99.90;;;;;;5123962;28;19961;-69
2023/04/27 03:26:29;;;;;;;;;;;2.60;99.90;;;;;;5123233;28;19987;-71
2023/04/27 03:28:56;;;;;;;;;;;2.60;99.90;;;;;;5123950;28;19955;-69
2023/04/27 03:31:22;;;;;;;;;;;2.60;99.90;;;;;;5123806;28;19990;-70
2023/04/27 03:33:49;;;;;;;;;;;2.60;99.90;;;;;;5123515;28;20259;-70
2023/04/27 03:36:16;;;;;;;;;;;2.60;99.90;;;;;;5123390;28;19920;-70
2023/04/27 03:38:42;;;;;;;;;;;2.50;99.90;;;;;;5123912;28;20062;-69
2023/04/27 03:41:10;;;;;;;;;;;2.50;99.90;;;;;;5123331;28;20223;-69
2023/04/27 03:43:37;;;;;;;;;;;2.50;99.90;;;;;;5123438;28;19955;-69
2023/04/27 03:46:03;;;;;;;;;;;2.50;99.90;;;;;;5123390;28;19966;-68
2023/04/27 03:48:30;;;;;;;;;;;2.50;99.90;;;;;;5124546;28;19920;-70
2023/04/27 03:50:57;;;;;;;;;;;2.50;99.90;;;;;;5127595;28;20179;-69
2023/04/27 03:53:23;;;;;;;;;;;2.50;99.90;;;;;;5127327;28;19983;-69
2023/04/27 03:55:50;;;;;;;;;;;2.40;99.90;;;;;;5127291;28;19962;-68
2023/04/27 03:58:18;;;;;;;;;;;2.40;99.90;;;;;;5127204;28;19919;-69
2023/04/27 04:00:44;;;;;;;;;;;2.50;99.90;;;;;;5127284;28;19962;-69
2023/04/27 04:03:11;;;;;;;;;;;2.40;99.90;;;;;;5106904;28;19983;-72
2023/04/27 04:05:38;;;;;;;;;;;2.50;99.90;;;;;;5106339;28;20219;-69
2023/04/27 04:08:05;;;;;;;;;;;2.40;99.90;;;;;;5106745;28;19920;-69
2023/04/27 04:10:31;;;;;;;;;;;2.40;99.90;;;;;;5106466;28;19920;-72
2023/04/27 04:12:58;;;;;;;;;;;2.40;99.90;;;;;;5106678;28;19962;-69
2023/04/27 04:15:26;;;;;;;;;;;2.40;99.90;;;;;;5106485;28;19983;-69
2023/04/27 04:17:52;;;;;;;;;;;2.40;99.90;;;;;;5106106;28;19919;-69
2023/04/27 04:20:19;;;;;;;;;;;2.40;99.90;;;;;;5106858;28;19955;-71
2023/04/27 04:22:46;;;;;;;;;;;2.40;99.90;;;;;;5104147;28;19963;-69
2023/04/27 04:25:12;;;;;;;;;;;2.40;99.90;;;;;;5106395;28;19983;-70
2023/04/27 04:27:39;;;;;;;;;;;2.40;99.90;;;;;;5105729;28;19955;-71
2023/04/27 04:30:06;;;;;;;;;;;2.40;99.90;;;;;;5106383;28;20402;-69
2023/04/27 04:32:36;;;;;;;;;;;2.40;99.90;;;;;;5106339;28;19920;-69
2023/04/27 04:35:04;;;;;;;;;;;2.40;99.90;;;;;;5123546;28;19919;-69
2023/04/27 04:37:32;;;;;;;;;;;2.40;99.90;;;;;;5125912;28;20207;-70
2023/04/27 04:39:59;;;;;;;;;;;2.30;99.90;;;;;;5126708;28;19928;-68
2023/04/27 04:42:26;;;;;;;;;;;2.40;99.90;;;;;;5126575;28;19990;-70
2023/04/27 04:44:52;;;;;;;;;;;2.40;99.90;;;;;;5126173;28;20115;-71
2023/04/27 04:47:19;;;;;;;;;;;2.40;99.90;;;;;;5126036;27;19955;-70
2023/04/27 04:49:47;;;;;;;;;;;2.40;99.90;;;;;;5106319;28;19955;-69
2023/04/27 04:52:14;;;;;;;;;;;2.50;99.90;;;;;;5105992;28;19920;-69
2023/04/27 04:54:40;;;;;;;;;;;2.50;99.90;;;;;;5100812;28;19962;-69
2023/04/27 04:57:07;;;;;;;;;;;2.50;99.90;;;;;;5105891;28;19987;-71
2023/04/27 04:59:34;;;;;;;;;;;2.60;99.90;;;;;;5104579;28;20262;-69
2023/04/27 05:02:00;;;;;;;;;;;2.60;99.90;;;;;;5117259;28;19954;-71
2023/04/27 05:04:27;;;;;;;;;;;2.70;99.90;;;;;;5123775;28;20095;-69
2023/04/27 05:06:55;;;;;;;;;;;2.70;99.90;;;;;;5125010;28;19957;-69
2023/04/27 05:09:22;;;;;;;;;;;2.70;99.90;;;;;;5125296;28;20165;-69
2023/04/27 05:11:49;;;;;;;;;;;2.70;99.90;;;;;;5126107;28;19920;-70
2023/04/27 05:14:15;;;;;;;;;;;2.70;99.90;;;;;;5125799;28;20180;-69
2023/04/27 05:16:42;;;;;;;;;;;2.70;99.90;;;;;;5125744;28;19990;-69
2023/04/27 05:19:08;;;;;;;;;;;2.70;99.90;;;;;;5125703;28;20204;-72
2023/04/27 05:21:35;;;;;;;;;;;2.80;99.90;;;;;;5125337;28;19987;-70
2023/04/27 05:24:03;;;;;;;;;;;2.80;99.90;;;;;;5125447;28;19920;-68
2023/04/27 05:26:30;;;;;;;;;;;2.90;99.90;;;;;;5124742;28;20204;-70
2023/04/27 05:28:57;;;;;;;;;;;2.90;99.90;;;;;;5125582;28;19983;-70
2023/04/27 05:31:23;;;;;;;;;;;3.00;99.90;;;;;;5125586;28;19951;-70
2023/04/27 05:33:50;;;;;;;;;;;3.00;99.90;;;;;;5125557;28;19955;-69
2023/04/27 05:36:17;;;;;;;;;;;3.10;99.90;;;;;;5125152;28;19955;-69
2023/04/27 05:38:43;;;;;;;;;;;3.10;99.90;;;;;;5125891;28;19951;-70
2023/04/27 05:41:11;;;;;;;;;;;3.20;99.90;;;;;;5123307;28;19927;-70
2023/04/27 05:43:38;;;;;;;;;;;3.20;99.90;;;;;;5125689;28;19921;-69
2023/04/27 05:46:05;;;;;;;;;;;3.30;99.90;;;;;;5124724;28;20157;-70
2023/04/27 05:48:31;;;;;;;;;;;3.40;99.90;;;;;;5125166;28;20308;-69
2023/04/27 05:51:01;;;;;;;;;;;3.50;99.90;;;;;;5125452;28;19962;-69
2023/04/27 05:53:28;;;;;;;;;;;3.50;99.90;;;;;;5125491;28;19920;-69
2023/04/27 05:55:55;;;;;;;;;;;3.60;99.90;;;;;;5125302;28;19979;-69
2023/04/27 05:58:23;;;;;;;;;;;3.70;99.90;;;;;;5124938;28;19969;-70
2023/04/27 06:00:49;;;;;;;;;;;3.70;99.90;;;;;;5124046;28;20236;-69
2023/04/27 06:03:16;;;;;;;;;;;3.80;99.90;;;;;;5104439;28;20204;-70
2023/04/27 06:05:43;;;;;;;;;;;3.90;99.90;;;;;;5104466;28;19927;-69
2023/04/27 06:08:09;;;;;;;;;;;4.00;99.90;;;;;;5104509;28;19987;-70
2023/04/27 06:10:36;;;;;;;;;;;4.00;99.90;;;;;;5104464;28;19958;-69
2023/04/27 06:13:03;;;;;;;;;;;4.00;99.90;;;;;;5104257;28;19952;-70
2023/04/27 06:15:31;;;;;;;;;;;4.10;99.90;;;;;;5104512;28;20004;-70
2023/04/27 06:17:57;;;;;;;;;;;4.20;99.90;;;;;;5104064;28;20287;-69
2023/04/27 06:20:24;;;;;;;;;;;4.20;99.90;;;;;;5104566;28;19987;-69
2023/04/27 06:22:51;;;;;;;;;;;4.30;99.90;;;;;;5104364;28;19964;-69
2023/04/27 06:25:17;;;;;;;;;;;4.40;99.90;;;;;;5104130;28;20132;-70
2023/04/27 06:27:44;;;;;;;;;;;4.40;99.90;;;;;;5103425;28;19958;-70
2023/04/27 06:30:11;;;;;;;;;;;4.60;99.90;;;;;;5104287;28;19951;-69
2023/04/27 06:32:39;;;;;;;;;;;4.70;99.90;;;;;;5104022;28;20221;-70
2023/04/27 06:35:06;;;;;;;;;;;4.80;99.90;;;;;;5104277;28;19961;-69
2023/04/27 06:37:33;;;;;;;;;;;4.80;99.90;;;;;;5103477;28;19987;-69
2023/04/27 06:39:59;;;;;;;;;;;4.90;99.90;;;;;;5104324;28;19995;-70
2023/04/27 06:42:27;;;;;;;;;;;5.00;99.90;;;;;;5102882;28;19920;-70
2023/04/27 06:44:54;;;;;;;;;;;5.10;99.90;;;;;;5103611;28;19953;-69
2023/04/27 06:47:21;;;;;;;;;;;5.20;99.90;;;;;;5103300;28;20494;-69
2023/04/27 06:49:49;;;;;;;;;;;5.30;99.90;;;;;;5104284;28;19991;-69
2023/04/27 06:52:17;;;;;;;;;;;5.40;99.90;;;;;;5101706;28;19928;-69
2023/04/27 06:54:44;;;;;;;;;;;5.50;99.90;;;;;;5102810;28;19926;-70
2023/04/27 06:57:10;;;;;;;;;;;5.60;99.90;;;;;;5103232;28;19926;-69
2023/04/27 06:59:37;;;;;;;;;;;5.70;99.90;;;;;;5103984;28;19951;-69
2023/04/27 07:02:04;;;;;;;;;;;5.80;99.90;;;;;;5115022;28;19923;-69
2023/04/27 07:04:30;;;;;;;;;;;5.90;99.90;;;;;;5122921;28;19919;-70
2023/04/27 07:06:58;;;;;;;;;;;6.00;99.90;;;;;;5123424;28;19919;-68
2023/04/27 07:09:26;;;;;;;;;;;6.10;99.90;;;;;;5124320;28;19990;-71
2023/04/27 07:11:52;;;;;;;;;;;6.20;99.90;;;;;;5124094;28;20259;-70
2023/04/27 07:14:19;;;;;;;;;;;6.30;99.90;;;;;;5123674;28;19987;-70
2023/04/27 07:16:46;;;;;;;;;;;6.40;99.90;;;;;;5123860;28;19949;-69
2023/04/27 07:19:12;;;;;;;;;;;6.50;99.90;;;;;;5124259;28;19920;-70
2023/04/27 07:21:39;;;;;;;;;;;6.60;99.90;;;;;;5124096;28;19984;-70
2023/04/27 07:24:08;;;;;;;;;;;6.60;99.90;;;;;;5127840;28;19926;-70
2023/04/27 07:26:35;;;;;;;;;;;6.70;99.90;;;;;;5127284;28;19986;-70
2023/04/27 07:29:02;;;;;;;;;;;6.80;99.90;;;;;;5127869;28;19919;-69
2023/04/27 07:31:28;;;;;;;;;;;7.00;99.90;;;;;;5128155;28;19954;-69
2023/04/27 07:33:55;;;;;;;;;;;7.10;99.90;;;;;;5128288;28;19947;-70
2023/04/27 07:36:21;;;;;;;;;;;7.20;99.90;;;;;;5127527;28;19962;-69
2023/04/27 07:38:48;;;;;;;;;;;7.40;99.90;;;;;;5128173;28;19986;-69
2023/04/27 07:41:16;;;;;;;;;;;7.50;99.90;;;;;;5127943;28;19920;-70
2023/04/27 07:43:43;;;;;;;;;;;7.60;99.90;;;;;;5127955;28;19951;-69
2023/04/27 07:46:10;;;;;;;;;;;7.80;99.90;;;;;;5127337;28;20163;-69
2023/04/27 07:48:38;;;;;;;;;;;7.90;99.90;;;;;;5127691;28;19986;-70
2023/04/27 07:51:04;;;;;;;;;;;8.00;99.90;;;;;;5127538;27;19927;-68
2023/04/27 07:53:31;;;;;;;;;;;8.20;99.90;;;;;;5127415;28;19920;-70
2023/04/27 07:55:58;;;;;;;;;;;8.40;99.90;;;;;;5127422;28;19959;-69
2023/04/27 07:58:25;;;;;;;;;;;8.60;99.90;;;;;;5127093;28;20229;-69
2023/04/27 08:00:52;;;;;;;;;;;8.70;99.90;;;;;;5126455;28;19919;-69
2023/04/27 08:03:19;;;;;;;;;;;9.00;99.90;;;;;;5106998;28;19990;-70
2023/04/27 08:05:46;;;;;;;;;;;9.10;99.90;;;;;;5106696;28;20179;-69
2023/04/27 08:08:12;;;;;;;;;;;9.30;99.90;;;;;;5106712;28;19928;-69
2023/04/27 08:10:39;;;;;;;;;;;9.40;99.90;;;;;;5106727;28;19992;-69
2023/04/27 08:13:08;;;;;;;;;;;9.50;99.90;;;;;;5106486;28;19928;-69
2023/04/27 08:15:36;;;;;;;;;;;9.60;99.90;;;;;;5106241;28;19920;-70
2023/04/27 08:18:03;;;;;;;;;;;9.70;99.90;;;;;;5106199;28;19988;-70
2023/04/27 08:20:30;;;;;;;;;;;9.80;99.90;;;;;;5106711;28;19987;-70
2023/04/27 08:22:56;;;;;;;;;;;9.90;99.90;;;;;;5106807;28;19958;-69
2023/04/27 08:25:23;;;;;;;;;;;10.00;99.90;;;;;;5106647;28;19959;-69
2023/04/27 08:27:50;;;;;;;;;;;10.00;99.90;;;;;;5106076;28;19991;-69
2023/04/27 08:30:16;;;;;;;;;;;10.10;99.90;;;;;;5106614;28;20163;-71
2023/04/27 08:32:44;;;;;;;;;;;10.20;99.90;;;;;;5106230;28;19920;-70
2023/04/27 08:35:12;;;;;;;;;;;10.30;99.90;;;;;;5105879;28;19951;-69
2023/04/27 08:37:38;;;;;;;;;;;10.40;99.90;;;;;;5106022;28;19920;-69
2023/04/27 08:40:07;;;;;;;;;;;10.50;99.90;;;;;;5106194;28;20265;-71
2023/04/27 08:42:33;;;;;;;;;;;10.60;99.90;;;;;;5106031;28;20275;-69
2023/04/27 08:45:00;;;;;;;;;;;10.70;99.90;;;;;;5106284;28;19991;-70
2023/04/27 08:47:26;;;;;;;;;;;10.80;99.90;;;;;;5105480;28;20259;-69
2023/04/27 08:49:54;;;;;;;;;;;10.90;99.90;;;;;;5106014;28;19959;-68
2023/04/27 08:52:21;;;;;;;;;;;11.00;99.90;;;;;;5106084;28;20128;-70
2023/04/27 08:54:48;;;;;;;;;;;11.10;99.90;;;;;;5106082;28;19987;-69
2023/04/27 08:57:15;;;;;;;;;;;11.20;99.90;;;;;;5105450;28;19991;-71
2023/04/27 08:59:43;;;;;;;;;;;11.20;99.90;;;;;;5106200;28;19952;-69
2023/04/27 09:02:18;;;;;;;;;;;11.30;99.90;;;;;;5117908;28;19920;-71
2023/04/27 09:04:44;;;;;;;;;;;11.30;99.90;;;;;;5123588;28;19926;-70
2023/04/27 09:07:13;;;;;;;;;;;11.40;99.90;;;;;;5125336;28;19927;-69
2023/04/27 09:09:40;;;;;;;;;;;11.40;99.90;;;;;;5126023;28;20222;-69
2023/04/27 09:12:16;;;;;;;;;;;11.40;99.90;;;;;;5126121;28;19986;-68
2023/04/27 09:14:43;;;;;;;;;;;11.50;99.90;;;;;;5125978;28;19919;-70
2023/04/27 09:17:10;;;;;;;;;;;11.60;99.90;;;;;;5125421;28;19920;-69
2023/04/27 09:19:36;;;;;;;;;;;11.70;99.90;;;;;;5126167;28;20141;-70
2023/04/27 09:22:07;;;;;;;;;;;11.80;99.90;;;;;;5125690;28;20243;-69
2023/04/27 09:24:35;;;;;;;;;;;11.90;99.90;;;;;;5126033;28;19919;-69
2023/04/27 09:27:03;;;;;;;;;;;11.90;99.90;;;;;;5125313;28;19968;-69
2023/04/27 09:29:33;;;;;;;;;;;12.00;99.90;;;;;;5125682;28;20329;-70
2023/04/27 09:32:00;;;;;;;;;;;12.10;99.90;;;;;;5125627;28;19920;-70
2023/04/27 09:34:26;;;;;;;;;;;12.10;99.90;;;;;;5125552;28;19991;-72
2023/04/27 09:36:53;;;;;;;;;;;12.10;99.90;;;;;;5124951;28;19928;-70
2023/04/27 09:39:20;;;;;;;;;;;12.20;99.90;;;;;;5125718;28;19926;-70
2023/04/27 09:41:48;;;;;;;;;;;12.30;99.90;;;;;;5125651;28;20234;-70
2023/04/27 09:44:16;;;;;;;;;;;12.40;99.90;;;;;;5125662;28;19939;-71
2023/04/27 09:46:44;;;;;;;;;;;12.50;99.90;;;;;;5123527;28;20208;-70
2023/04/27 09:49:12;;;;;;;;;;;12.50;99.90;;;;;;5125369;28;19977;-70
2023/04/27 09:51:38;;;;;;;;;;;12.60;99.90;;;;;;5125577;28;19920;-72
2023/04/27 09:54:05;;;;;;;;;;;12.60;99.90;;;;;;5122273;28;19927;-70
2023/04/27 09:56:36;;;;;;;;;;;12.70;99.90;;;;;;5124704;27;19951;-71
2023/04/27 09:59:13;;;;;;;;;;;12.70;99.90;;;;;;5125072;28;19920;-72
2023/04/27 10:01:43;;;;;;;;;;;12.90;99.90;;;;;;5117104;28;19958;-72
2023/04/27 10:04:15;;;;;;;;;;;13.00;99.90;;;;;;5104925;28;19933;-70
2023/04/27 10:06:50;;;;;;;;;;;13.20;99.90;;;;;;5103987;28;19920;-71
2023/04/27 10:09:22;;;;;;;;;;;13.30;99.90;;;;;;5104870;28;19920;-71
2023/04/27 10:11:49;;;;;;;;;;;13.40;99.90;;;;;;5104664;28;19991;-70
2023/04/27 10:14:18;;;;;;;;;;;13.60;99.90;;;;;;5104628;28;19927;-70
2023/04/27 10:16:46;;;;;;;;;;;13.80;99.90;;;;;;5103654;28;19987;-71
2023/04/27 10:19:13;;;;;;;;;;;13.80;99.90;;;;;;5104311;28;19920;-70
2023/04/27 10:21:50;;;;;;;;;;;13.80;99.90;;;;;;5114482;28;19955;-71
2023/04/27 10:24:17;;;;;;;;;;;13.80;99.90;;;;;;5117905;28;19955;-71
2023/04/27 10:26:46;;;;;;;;;;;13.70;99.90;;;;;;5104152;28;19996;-70
2023/04/27 10:29:15;;;;;;;;;;;13.60;99.90;;;;;;5116751;28;19920;-70
2023/04/27 10:31:45;;;;;;;;;;;13.80;99.90;;;;;;5124586;28;19957;-70
2023/04/27 10:34:15;;;;;;;;;;;14.00;99.90;;;;;;5123812;28;20143;-70
2023/04/27 10:36:42;;;;;;;;;;;14.10;99.90;;;;;;5120565;28;19939;-69
2023/04/27 10:39:18;;;;;;;;;;;14.20;99.90;;;;;;5104144;28;20137;-69
2023/04/27 10:41:52;;;;;;;;;;;14.30;99.90;;;;;;5104134;28;19988;-69
2023/04/27 10:44:19;;;;;;;;;;;14.40;99.90;;;;;;5104072;28;19920;-69
2023/04/27 10:46:53;;;;;;;;;;;14.50;99.90;;;;;;5103449;28;19920;-69
2023/04/27 10:49:20;;;;;;;;;;;14.50;99.90;;;;;;5104051;28;20119;-70
2023/04/27 10:51:47;;;;;;;;;;;14.50;99.90;;;;;;5103780;28;19961;-70
2023/04/27 10:54:13;;;;;;;;;;;14.60;99.90;;;;;;5103974;28;19994;-70
2023/04/27 10:56:41;;;;;;;;;;;14.80;99.90;;;;;;5103233;28;19920;-69
2023/04/27 10:59:08;;;;;;;;;;;15.00;99.90;;;;;;5103663;28;19958;-70
2023/04/27 11:01:34;;;;;;;;;;;15.30;99.90;;;;;;5110540;28;19924;-72
2023/04/27 11:04:04;;;;;;;;;;;15.60;99.90;;;;;;5124230;28;20200;-69
2023/04/27 11:06:32;;;;;;;;;;;15.70;99.90;;;;;;5122883;28;19920;-70
2023/04/27 11:09:01;;;;;;;;;;;15.80;99.90;;;;;;5123500;28;20272;-70
2023/04/27 11:11:28;;;;;;;;;;;15.80;99.90;;;;;;5123772;28;20200;-70
2023/04/27 11:13:54;;;;;;;;;;;15.70;99.90;;;;;;5123829;28;19995;-71
2023/04/27 11:16:21;;;;;;;;;;;15.80;99.90;;;;;;5123606;28;19954;-70
2023/04/27 11:18:48;;;;;;;;;;;16.00;99.90;;;;;;5124120;28;19998;-72
2023/04/27 11:21:16;;;;;;;;;;;16.10;99.90;;;;;;5123681;28;20169;-69
2023/04/27 11:23:43;;;;;;;;;;;16.30;99.90;;;;;;5123904;28;19999;-70
2023/04/27 11:26:10;;;;;;;;;;;16.30;99.70;;;;;;5122962;28;20171;-69
2023/04/27 11:28:37;;;;;;;;;;;16.10;99.90;;;;;;5113989;28;20133;-70
2023/04/27 11:31:04;;;;;;;;;;;15.90;99.90;;;;;;5103554;28;19920;-70
2023/04/27 11:33:31;;;;;;;;;;;15.70;99.90;;;;;;5103501;28;19920;-70
2023/04/27 11:35:58;;;;;;;;;;;15.70;99.90;;;;;;5102710;28;19928;-71
2023/04/27 11:38:26;;;;;;;;;;;15.80;99.90;;;;;;5103248;28;19920;-69
2023/04/27 11:40:59;;;;;;;;;;;16.00;99.90;;;;;;5103265;28;19919;-70
2023/04/27 11:43:26;;;;;;;;;;;15.90;99.90;;;;;;5103347;28;19920;-70
2023/04/27 11:45:53;;;;;;;;;;;16.20;99.90;;;;;;5103112;28;19955;-71
2023/04/27 11:48:22;;;;;;;;;;;16.50;99.90;;;;;;5117770;28;19928;-70
2023/04/27 11:50:50;;;;;;;;;;;16.60;98.10;;;;;;5122379;28;19919;-70
2023/04/27 11:53:17;;;;;;;;;;;16.50;99.90;;;;;;5122678;28;19982;-70
2023/04/27 11:55:44;;;;;;;;;;;16.50;99.40;;;;;;5123157;28;19928;-70
2023/04/27 11:58:15;;;;;;;;;;;16.70;99.90;;;;;;5123655;28;20160;-71
2023/04/27 12:00:41;;;;;;;;;;;17.00;99.90;;;;;;5122940;28;20115;-71
2023/04/27 12:03:08;;;;;;;;;;;17.20;98.70;;;;;;5101949;28;19954;-70
2023/04/27 12:05:35;;;;;;;;;;;17.50;98.60;;;;;;5120482;28;20144;-70
2023/04/27 12:08:01;;;;;;;;;;;17.60;97.20;;;;;;5123234;28;19983;-70
2023/04/27 12:10:28;;;;;;;;;;;17.60;96.30;;;;;;5125577;28;20203;-71
2023/04/27 12:12:56;;;;;;;;;;;17.40;96.90;;;;;;5126194;28;19986;-71
2023/04/27 12:15:23;;;;;;;;;;;17.10;96.60;;;;;;5123750;28;19945;-70
2023/04/27 12:17:49;;;;;;;;;;;16.80;97.00;;;;;;5126328;28;19954;-70
2023/04/27 12:20:16;;;;;;;;;;;16.60;97.10;;;;;;5126908;28;19986;-69
2023/04/27 12:22:43;;;;;;;;;;;16.40;97.90;;;;;;5126873;28;19987;-69
2023/04/27 12:25:09;;;;;;;;;;;16.40;97.30;;;;;;5126713;28;19951;-69
2023/04/27 12:27:36;;;;;;;;;;;16.40;98.30;;;;;;5126189;28;19920;-69
2023/04/27 12:30:05;;;;;;;;;;;16.70;97.90;;;;;;5124482;28;19955;-69
2023/04/27 12:32:31;;;;;;;;;;;16.70;96.90;;;;;;5110734;28;19920;-70
2023/04/27 12:34:58;;;;;;;;;;;16.70;97.80;;;;;;5106304;28;19987;-69
2023/04/27 12:37:25;;;;;;;;;;;16.70;98.70;;;;;;5106157;28;19956;-70
2023/04/27 12:39:51;;;;;;;;;;;16.90;97.70;;;;;;5106397;28;20155;-70
2023/04/27 12:42:22;;;;;;;;;;;17.00;97.40;;;;;;5106319;28;19959;-69
2023/04/27 12:44:49;;;;;;;;;;;17.20;99.20;;;;;;5105967;28;19983;-69
2023/04/27 12:47:17;;;;;;;;;;;17.40;97.10;;;;;;5105086;28;19920;-71
2023/04/27 12:49:44;;;;;;;;;;;17.60;96.90;;;;;;5122581;28;19951;-67
2023/04/27 12:52:11;;;;;;;;;;;18.00;96.80;;;;;;5126158;27;19926;-68
2023/04/27 12:54:37;;;;;;;;;;;18.30;96.20;;;;;;5126363;28;19920;-67
2023/04/27 12:57:05;;;;;;;;;;;18.30;96.00;;;;;;5125495;28;19920;-68
2023/04/27 12:59:31;;;;;;;;;;;18.40;95.70;;;;;;5126053;28;19954;-67
2023/04/27 13:01:58;;;;;;;;;;;18.70;95.80;;;;;;5115459;27;19920;-66
2023/04/27 13:04:26;;;;;;;;;;;18.80;94.30;;;;;;5105851;28;19959;-67
2023/04/27 13:06:53;;;;;;;;;;;18.90;94.90;;;;;;5104683;28;19983;-67
2023/04/27 13:09:20;;;;;;;;;;;18.50;94.00;;;;;;5105803;28;19966;-68
2023/04/27 13:11:46;;;;;;;;;;;18.50;95.10;;;;;;5105750;28;19927;-67
2023/04/27 13:14:13;;;;;;;;;;;18.50;95.90;;;;;;5105643;28;19920;-69
2023/04/27 13:16:40;;;;;;;;;;;18.70;95.30;;;;;;5105373;28;19927;-67
2023/04/27 13:19:07;;;;;;;;;;;18.80;94.90;;;;;;5105646;28;19983;-68
2023/04/27 13:21:35;;;;;;;;;;;18.60;94.90;;;;;;5117961;28;19978;-66
2023/04/27 13:24:02;;;;;;;;;;;18.50;94.20;;;;;;5117847;28;19920;-68
2023/04/27 13:26:28;;;;;;;;;;;18.60;95.60;;;;;;5123316;28;20329;-69
2023/04/27 13:28:56;;;;;;;;;;;18.60;93.10;;;;;;5124713;28;19951;-70
2023/04/27 13:31:22;;;;;;;;;;;18.70;94.60;;;;;;5124245;27;19931;-70
2023/04/27 13:33:49;;;;;;;;;;;19.00;93.50;;;;;;5116241;28;19999;-70
2023/04/27 13:36:15;;;;;;;;;;;19.00;93.30;;;;;;5119267;28;19927;-70
2023/04/27 13:38:43;;;;;;;;;;;19.00;93.70;;;;;;5105290;28;19920;-71
2023/04/27 13:41:10;;;;;;;;;;;19.00;94.20;;;;;;5107354;28;19986;-70
2023/04/27 13:43:37;;;;;;;;;;;19.00;93.40;;;;;;5125679;28;19991;-70
2023/04/27 13:46:03;;;;;;;;;;;18.90;93.60;;;;;;5124553;28;19920;-69
2023/04/27 13:48:30;;;;;;;;;;;18.80;93.80;;;;;;5125367;28;19930;-69
2023/04/27 13:50:57;;;;;;;;;;;18.70;93.80;;;;;;5112089;28;19987;-69
2023/04/27 13:53:25;;;;;;;;;;;18.60;92.80;;;;;;5104568;28;20212;-69
2023/04/27 13:55:53;;;;;;;;;;;18.40;93.30;;;;;;5104633;28;19987;-69
2023/04/27 13:58:20;;;;;;;;;;;18.40;93.20;;;;;;5104667;28;19920;-69
2023/04/27 14:00:47;;;;;;;;;;;18.30;93.10;;;;;;5104913;28;19942;-69
2023/04/27 14:03:15;;;;;;;;;;;18.20;93.60;;;;;;5104976;28;19920;-70
2023/04/27 14:05:42;;;;;;;;;;;18.10;93.50;;;;;;5104188;28;19920;-69
2023/04/27 14:08:08;;;;;;;;;;;18.00;94.30;;;;;;5118035;28;19979;-69
2023/04/27 14:10:35;;;;;;;;;;;17.90;94.30;;;;;;5125038;28;19987;-71
2023/04/27 14:13:03;;;;;;;;;;;17.90;93.70;;;;;;5124909;28;19920;-70
2023/04/27 14:15:32;;;;;;;;;;;17.90;93.90;;;;;;5124598;27;20354;-71
2023/04/27 14:17:59;;;;;;;;;;;18.10;95.20;;;;;;5124238;28;20166;-70
2023/04/27 14:20:26;;;;;;;;;;;18.20;94.10;;;;;;5124871;28;19988;-69
2023/04/27 14:22:54;;;;;;;;;;;18.20;94.80;;;;;;5124465;28;19920;-70